Accueil
METAR-TAF:

METAR-TAF

Aéroports :

Odiham, Angleterre

latitude: 51-14N, longitude: 000-57W, altitude: 123 m

Observation

Le bulletin a été fait il y a 34 minutes, à 07:50 UTC
Vent 4 kt de nord-est
Température 5°C
Humidité 65%
Pression 1030 hPa
Visibilité 10 km ou plus

METAR: EGVO 170750Z AUTO 04004KT 9999 NCD 05/M01 Q1030

Heure: 09:24 (08:24 UTC)

Prévision

Le bulletin a été fait il y a 19 heures et 11 minutes, à 13:13 UTC
Prévision valable du 16 à 15 UTC au 17 à 03 UTC
Vent 6 kt de nord
Visibilité 10 km ou plus
pas de nuages en-dessous de 1500 mètres et pas de cumulonimbus.

TAF: EGVO 161313Z 1615/1703 35006KT CAVOK

Observations et prévisions météorologiques de plus de 4000 aéroports (messages METAR et TAF).

Les stations disponibles sont représentées par des disques jaunes et rouges sur la carte.

Passer la souris dessus pour voir le nom de la station.

Cliquer dessus pour voir les observations et prévisions météorologiques.

Pour changer de carte: cliquez sur les boutons verts avec une croix noire pour zoomer, sur le bouton vert avec un tiret pour effectuer un zoom arrière, ou sur les flèches vertes pour les cartes adjacentes.


METAR-TAF: